Time;durP1;ratioP1;P1;durP2;ratioP2;P2;SDS_P1;SDS_P2;PMS_P1;PMS_P2;Temp;Humidity;BMP_temperature;BMP_pressure;BME280_temperature;BME280_humidity;BME280_pressure;Samples;Min_cycle;Max_cycle;Signal;HPM_P1;HPM_P2
2023/08/18 00:00:01;;;;;;;9.63;5.72;;;;;;;23.70;73.51;100537.38;4075951;29;20044;-73
2023/08/18 00:02:11;;;;;;;10.15;6.35;;;;;;;23.67;73.59;100539.25;4079472;29;20084;-72
2023/08/18 00:04:14;;;;;;;8.00;5.97;;;;;;;23.63;73.79;100530.56;4079338;29;20039;-73
2023/08/18 00:06:16;;;;;;;6.75;5.70;;;;;;;23.63;73.89;100535.88;4078102;29;20059;-72
2023/08/18 00:08:19;;;;;;;7.80;6.18;;;;;;;23.65;73.65;100525.19;4072386;29;20126;-73
2023/08/18 00:10:22;;;;;;;6.53;5.40;;;;;;;23.62;73.83;100512.91;4078364;29;20056;-73
2023/08/18 00:12:25;;;;;;;8.40;6.50;;;;;;;23.59;73.98;100510.38;4078392;29;20070;-73
2023/08/18 00:14:29;;;;;;;10.35;6.68;;;;;;;23.59;74.00;100510.38;4078283;29;20131;-72
2023/08/18 00:16:32;;;;;;;7.28;6.10;;;;;;;23.57;73.99;100508.69;4077834;29;20494;-72
2023/08/18 00:18:34;;;;;;;11.65;7.07;;;;;;;23.57;73.68;100509.56;4093169;29;20051;-72
2023/08/18 00:20:37;;;;;;;9.32;6.18;;;;;;;23.54;73.66;100504.41;4077986;29;20075;-72
2023/08/18 00:22:40;;;;;;;9.20;6.80;;;;;;;23.49;73.85;100501.03;4077478;29;20063;-72
2023/08/18 00:24:43;;;;;;;8.38;6.32;;;;;;;23.47;73.83;100500.25;4083093;29;20044;-72
2023/08/18 00:26:46;;;;;;;8.50;5.68;;;;;;;23.42;74.01;100502.19;4077431;29;20032;-72
2023/08/18 00:28:49;;;;;;;10.25;6.15;;;;;;;23.41;73.99;100498.69;4099461;23;20043;-63
2023/08/18 00:30:53;;;;;;;6.93;5.97;;;;;;;23.41;74.14;100503.13;4091593;29;20043;-63
2023/08/18 00:32:56;;;;;;;7.00;6.00;;;;;;;23.42;74.06;100499.53;4094559;29;20477;-63
2023/08/18 00:34:59;;;;;;;8.77;6.20;;;;;;;23.43;74.11;100490.69;4095157;29;20525;-63
2023/08/18 00:37:02;;;;;;;6.82;6.13;;;;;;;23.42;74.16;100495.13;4106506;28;20049;-63
2023/08/18 00:39:05;;;;;;;7.83;5.87;;;;;;;23.41;74.00;100492.50;4080209;29;20040;-63
2023/08/18 00:41:08;;;;;;;12.07;6.55;;;;;;;23.41;74.04;100497.81;4079388;29;20127;-63
2023/08/18 00:43:11;;;;;;;7.25;5.90;;;;;;;23.41;74.11;100498.69;4093687;29;20051;-63
2023/08/18 00:45:15;;;;;;;9.95;5.25;;;;;;;23.39;74.06;100500.53;4075964;29;20044;-63
2023/08/18 00:47:19;;;;;;;8.57;5.80;;;;;;;23.38;74.05;100497.94;4075163;29;20051;-63
2023/08/18 00:49:23;;;;;;;9.40;5.97;;;;;;;23.38;73.89;100497.94;4074361;29;20088;-62
2023/08/18 00:51:26;;;;;;;9.95;6.13;;;;;;;23.38;74.12;100498.81;4074211;29;20064;-63
2023/08/18 00:53:30;;;;;;;7.05;6.18;;;;;;;23.40;73.90;100504.06;4081127;29;20128;-63
2023/08/18 00:55:33;;;;;;;7.03;5.43;;;;;;;23.39;73.96;100497.00;4079491;29;20525;-63
2023/08/18 00:57:37;;;;;;;6.43;5.40;;;;;;;23.38;74.10;100492.63;4069658;29;20040;-63
2023/08/18 00:59:43;;;;;;;9.27;5.97;;;;;;;23.38;73.93;100490.84;4092262;29;20039;-63
2023/08/18 01:01:47;;;;;;;9.50;5.43;;;;;;;23.38;74.06;100493.50;4077687;29;20040;-63
2023/08/18 01:03:51;;;;;;;10.48;6.07;;;;;;;23.38;74.19;100497.94;4077558;29;20052;-63
2023/08/18 01:05:54;;;;;;;8.82;5.55;;;;;;;23.36;74.35;100500.66;4068967;29;20064;-63
2023/08/18 01:07:56;;;;;;;6.78;5.30;;;;;;;23.34;74.24;100500.72;4074435;29;20045;-63
2023/08/18 01:09:59;;;;;;;8.50;5.95;;;;;;;23.30;74.45;100501.75;4075822;29;20079;-63
2023/08/18 01:12:11;;;;;;;7.72;5.05;;;;;;;23.26;74.42;100504.56;4072751;29;20054;-63
2023/08/18 01:14:22;;;;;;;9.57;5.72;;;;;;;23.23;74.24;100499.38;4057202;29;20138;-63
2023/08/18 01:16:28;;;;;;;8.27;5.10;;;;;;;23.21;74.33;100490.63;4054981;29;20483;-63
2023/08/18 01:18:33;;;;;;;7.47;6.00;;;;;;;23.19;74.26;100493.34;4076989;29;20039;-62
2023/08/18 01:20:38;;;;;;;;;;;;;;;23.07;74.70;100488.47;4077396;29;20112;-62
2023/08/18 01:22:44;;;;;;;6.90;5.40;;;;;;;23.08;74.69;100492.84;4072906;29;19978;-62
2023/08/18 01:24:50;;;;;;;7.78;4.78;;;;;;;23.09;74.76;100476.03;4073491;29;20052;-63
2023/08/18 01:26:54;;;;;;;8.38;5.90;;;;;;;23.09;74.72;100489.28;4091645;29;20238;-63
2023/08/18 01:28:57;;;;;;;10.95;5.82;;;;;;;23.07;74.78;100485.81;4076175;29;20071;-63
2023/08/18 01:31:04;;;;;;;6.85;5.00;;;;;;;23.02;75.09;100486.84;4074202;29;20593;-62
2023/08/18 01:33:12;;;;;;;8.55;5.78;;;;;;;23.01;74.97;100486.91;4076995;29;20107;-63
2023/08/18 01:35:17;;;;;;;6.32;5.47;;;;;;;22.96;75.04;100484.41;4074834;29;20040;-63
2023/08/18 01:37:21;;;;;;;9.13;5.30;;;;;;;22.92;75.10;100481.94;4071514;29;20040;-63
2023/08/18 01:39:27;;;;;;;7.13;4.47;;;;;;;22.89;75.07;100485.56;4078490;29;20048;-63
2023/08/18 01:41:33;;;;;;;8.43;6.20;;;;;;;22.89;75.08;100487.34;4059563;29;20136;-63
2023/08/18 01:43:37;;;;;;;9.40;5.85;;;;;;;22.88;74.97;100490.94;4068975;29;20052;-62
2023/08/18 01:45:40;;;;;;;8.93;5.50;;;;;;;22.86;75.12;100490.13;4078128;29;20123;-63
2023/08/18 01:47:43;;;;;;;8.63;5.32;;;;;;;22.86;74.98;100487.47;4075155;29;20047;-63
2023/08/18 01:49:46;;;;;;;8.57;5.30;;;;;;;22.83;75.12;100483.16;4074503;29;20051;-62
2023/08/18 01:51:48;;;;;;;7.50;5.60;;;;;;;22.82;75.16;100486.72;4075946;29;20131;-63
2023/08/18 01:53:51;;;;;;;6.88;5.88;;;;;;;22.80;75.14;100485.91;4071512;29;20402;-62
2023/08/18 01:55:55;;;;;;;9.98;6.40;;;;;;;22.77;75.25;100478.06;4067845;29;20652;-63
2023/08/18 01:57:59;;;;;;;7.15;5.47;;;;;;;22.76;75.40;100476.34;4062962;29;20163;-63
2023/08/18 02:00:03;;;;;;;7.97;5.53;;;;;;;22.74;75.19;100476.38;4077907;29;20071;-62
2023/08/18 02:02:14;;;;;;;6.70;5.65;;;;;;;22.73;75.37;100473.78;4076192;29;20131;-63
2023/08/18 02:04:17;;;;;;;7.15;4.95;;;;;;;22.74;75.32;100481.69;4071977;29;20156;-63
2023/08/18 02:06:20;;;;;;;11.90;5.78;;;;;;;22.74;75.41;100470.25;4076098;29;20047;-62
2023/08/18 02:08:24;;;;;;;8.38;5.50;;;;;;;22.72;75.65;100474.72;4070399;29;20036;-63
2023/08/18 02:10:26;;;;;;;7.10;5.18;;;;;;;22.64;75.82;100469.69;4072821;29;20053;-62
2023/08/18 02:12:31;;;;;;;10.80;5.72;;;;;;;22.52;76.39;100465.69;4078486;29;20044;-63
2023/08/18 02:14:36;;;;;;;8.20;5.72;;;;;;;22.48;76.56;100469.38;4078173;29;20805;-63
2023/08/18 02:16:38;;;;;;;6.97;5.57;;;;;;;22.47;76.59;100463.22;4072700;29;20503;-63
2023/08/18 02:18:41;;;;;;;9.40;5.90;;;;;;;22.49;76.20;100463.16;4076372;29;20509;-63
2023/08/18 02:20:44;;;;;;;10.52;6.60;;;;;;;22.50;76.33;100462.22;4078063;29;20118;-62
2023/08/18 02:22:47;;;;;;;11.95;5.80;;;;;;;22.54;76.40;100457.69;4074056;29;20050;-62
2023/08/18 02:24:50;;;;;;;10.85;5.32;;;;;;;22.53;76.21;100459.50;4071593;29;20720;-63
2023/08/18 02:26:53;;;;;;;6.15;5.05;;;;;;;22.51;75.99;100465.75;4078332;29;20437;-63
2023/08/18 02:28:56;;;;;;;10.32;5.53;;;;;;;22.48;76.10;100459.63;4075403;29;20040;-63
2023/08/18 02:31:00;;;;;;;7.15;5.60;;;;;;;22.47;75.94;100464.97;4070220;29;20114;-63
2023/08/18 02:33:04;;;;;;;11.75;5.75;;;;;;;22.48;75.94;100466.72;4072663;29;20051;-63
2023/08/18 02:35:08;;;;;;;9.65;5.60;;;;;;;22.47;75.88;100467.63;4078032;29;20043;-63
2023/08/18 02:37:11;;;;;;;6.55;4.45;;;;;;;22.46;75.71;100460.63;4074265;29;20533;-63
2023/08/18 02:39:14;;;;;;;10.93;5.00;;;;;;;22.48;75.59;100464.94;4077445;29;20062;-63
2023/08/18 02:41:18;;;;;;;9.32;5.63;;;;;;;22.45;75.64;100466.84;4057425;29;20049;-63
2023/08/18 02:43:21;;;;;;;6.60;4.47;;;;;;;22.41;75.77;100470.50;4081028;29;20075;-63
2023/08/18 02:45:24;;;;;;;7.72;4.10;;;;;;;22.35;75.56;100468.06;4090105;29;20201;-63
2023/08/18 02:47:28;;;;;;;6.50;4.88;;;;;;;22.34;75.74;100469.88;4054507;29;20064;-63
2023/08/18 02:49:31;;;;;;;5.72;4.60;;;;;;;22.31;75.80;100462.84;4076279;29;20573;-63
2023/08/18 02:51:34;;;;;;;5.65;4.18;;;;;;;22.30;75.81;100454.97;4078838;29;20046;-63
2023/08/18 02:53:38;;;;;;;6.18;4.45;;;;;;;22.29;75.80;100456.72;4073098;29;20569;-63
2023/08/18 02:55:42;;;;;;;7.70;4.85;;;;;;;22.28;76.01;100452.38;4073764;29;20083;-63
2023/08/18 02:57:45;;;;;;;6.55;3.78;;;;;;;22.30;75.79;100457.63;4068456;29;20522;-63
2023/08/18 02:59:48;;;;;;;9.68;4.68;;;;;;;22.29;75.58;100453.22;4073000;29;20035;-63
2023/08/18 03:01:50;;;;;;;7.03;4.55;;;;;;;22.30;75.50;100454.97;4074276;29;20118;-63
2023/08/18 03:03:55;;;;;;;8.07;4.40;;;;;;;22.30;75.64;100454.97;4075551;29;20479;-63
2023/08/18 03:06:00;;;;;;;9.18;4.90;;;;;;;22.28;75.41;100452.38;4076829;29;20048;-63
2023/08/18 03:08:03;;;;;;;9.77;5.25;;;;;;;22.22;75.87;100452.56;4074737;29;20510;-63
2023/08/18 03:10:08;;;;;;;6.72;3.72;;;;;;;22.20;76.01;100459.69;4072122;29;20130;-63
2023/08/18 03:12:11;;;;;;;7.82;3.97;;;;;;;22.18;75.91;100461.56;4074456;29;20048;-63
2023/08/18 03:14:15;;;;;;;7.55;4.63;;;;;;;22.15;75.83;100458.97;4071698;29;20031;-63
2023/08/18 03:16:18;;;;;;;13.65;4.90;;;;;;;22.12;75.83;100459.09;4073654;29;20040;-63
2023/08/18 03:18:21;;;;;;;9.57;4.57;;;;;;;22.09;75.80;100459.19;4090880;28;20032;-63
2023/08/18 03:20:26;;;;;;;7.97;4.28;;;;;;;22.11;75.71;100460.03;4074703;29;20036;-63
2023/08/18 03:22:28;;;;;;;4.72;3.85;;;;;;;22.05;75.78;100465.50;4056180;29;20042;-63
2023/08/18 03:24:30;;;;;;;7.18;4.63;;;;;;;22.01;76.11;100463.91;4070285;29;20136;-63
2023/08/18 03:26:33;;;;;;;6.28;4.47;;;;;;;22.00;75.91;100467.44;4073083;29;20071;-63
2023/08/18 03:28:37;;;;;;;9.63;4.15;;;;;;;21.96;75.94;100464.91;4072194;29;20486;-63
2023/08/18 03:30:41;;;;;;;6.38;4.50;;;;;;;21.94;76.00;100466.72;4079041;29;20094;-63
2023/08/18 03:32:44;;;;;;;6.88;4.20;;;;;;;21.92;76.15;100465.91;4057992;29;20065;-63
2023/08/18 03:34:48;;;;;;;6.80;4.77;;;;;;;21.91;76.06;100464.19;4072384;29;20046;-63
2023/08/18 03:36:52;;;;;;;6.38;4.75;;;;;;;21.91;76.19;100469.47;4072432;29;20138;-63
2023/08/18 03:38:55;;;;;;;8.95;4.50;;;;;;;21.90;76.22;100470.41;4073925;29;20042;-63
2023/08/18 03:40:59;;;;;;;8.85;5.05;;;;;;;21.90;76.12;100473.06;4069297;29;20036;-63
2023/08/18 03:43:02;;;;;;;7.78;4.75;;;;;;;21.84;76.51;100473.22;4092532;29;20138;-63
2023/08/18 03:45:07;;;;;;;6.15;4.82;;;;;;;21.81;76.43;100473.34;4073362;29;20126;-63
2023/08/18 03:47:09;;;;;;;5.93;3.92;;;;;;;21.73;76.59;100470.94;4074556;29;20549;-63
2023/08/18 03:49:12;;;;;;;8.13;5.22;;;;;;;21.76;76.78;100480.56;4074986;29;20035;-63
2023/08/18 03:51:15;;;;;;;9.25;5.05;;;;;;;21.74;76.97;100471.81;4074787;29;20132;-63
2023/08/18 03:53:22;;;;;;;6.93;4.78;;;;;;;21.77;76.97;100482.28;4069147;29;20333;-63
2023/08/18 03:55:25;;;;;;;7.15;4.20;;;;;;;21.75;76.74;100469.09;4071486;29;20400;-63
2023/08/18 03:57:26;;;;;;;7.75;5.03;;;;;;;21.76;76.71;100470.00;4075946;29;20178;-63
2023/08/18 03:59:30;;;;;;;6.90;4.60;;;;;;;21.77;76.55;100484.94;4077297;29;20048;-63
2023/08/18 04:01:33;;;;;;;6.90;4.75;;;;;;;21.77;76.67;100471.69;4075517;29;20044;-63
2023/08/18 04:03:39;;;;;;;6.95;5.07;;;;;;;21.79;76.27;100485.75;4079583;29;20430;-63
2023/08/18 04:05:45;;;;;;;9.35;5.38;;;;;;;21.80;76.43;100474.28;4073546;29;20040;-63
2023/08/18 04:07:48;;;;;;;12.07;4.97;;;;;;;21.79;76.30;100491.91;4072917;29;20094;-63
2023/08/18 04:09:53;;;;;;;6.45;4.30;;;;;;;21.80;76.44;100492.81;4080148;29;20087;-63
2023/08/18 04:11:56;;;;;;;7.47;4.60;;;;;;;21.77;76.49;100490.22;4072460;29;20110;-63
2023/08/18 04:13:57;;;;;;;8.00;4.47;;;;;;;21.76;76.67;100485.88;4072212;29;20046;-63
2023/08/18 04:16:00;;;;;;;9.80;4.70;;;;;;;21.77;76.68;100487.56;4060674;29;20056;-63
2023/08/18 04:18:03;;;;;;;7.40;5.18;;;;;;;21.78;76.66;100484.03;4076164;29;20058;-64
2023/08/18 04:20:08;;;;;;;6.70;3.90;;;;;;;21.77;76.47;100483.16;4066406;29;20048;-63
2023/08/18 04:22:12;;;;;;;9.30;4.95;;;;;;;21.72;76.50;100486.88;4074109;29;20035;-63
2023/08/18 04:24:15;;;;;;;6.43;4.95;;;;;;;21.66;76.52;100485.28;4077597;29;20495;-63
2023/08/18 04:26:20;;;;;;;6.43;4.68;;;;;;;21.68;76.77;100487.88;4080754;29;20037;-63
2023/08/18 04:28:22;;;;;;;6.63;4.53;;;;;;;21.67;76.54;100500.25;4076512;29;20422;-63
2023/08/18 04:30:24;;;;;;;7.50;4.85;;;;;;;21.66;76.53;100485.28;4073447;29;20063;-63
2023/08/18 04:32:27;;;;;;;6.57;5.18;;;;;;;21.64;76.50;100481.84;4079514;29;20052;-63
2023/08/18 04:34:31;;;;;;;6.00;4.05;;;;;;;21.63;76.56;100493.31;4073900;29;20423;-63
2023/08/18 04:36:34;;;;;;;6.43;4.90;;;;;;;21.61;76.72;100488.06;4076118;29;20112;-63
2023/08/18 04:38:37;;;;;;;7.13;5.45;;;;;;;21.61;76.70;100488.06;4063116;29;20040;-64
2023/08/18 04:40:43;;;;;;;6.45;4.60;;;;;;;21.61;76.63;100492.47;4075399;29;20052;-63
2023/08/18 04:42:46;;;;;;;8.63;5.47;;;;;;;21.61;76.86;100487.19;4079842;29;20114;-64
2023/08/18 04:44:49;;;;;;;10.43;6.03;;;;;;;21.58;76.78;100493.47;4061308;29;20044;-63
2023/08/18 04:46:52;;;;;;;7.63;5.68;;;;;;;21.57;76.87;100501.47;4074454;29;20036;-63
2023/08/18 04:48:58;;;;;;;7.43;5.57;;;;;;;21.56;76.94;100500.56;4070461;29;20040;-63
2023/08/18 04:51:01;;;;;;;12.02;6.70;;;;;;;21.57;76.93;100497.03;4094777;29;20415;-63
2023/08/18 04:53:04;;;;;;;8.43;6.57;;;;;;;21.58;77.10;100498.75;4080180;29;20073;-63
2023/08/18 04:55:08;;;;;;;8.73;5.47;;;;;;;21.59;77.12;100497.81;4078762;29;20075;-63
2023/08/18 04:57:11;;;;;;;7.80;5.68;;;;;;;21.60;76.99;100502.22;4074892;29;20112;-63
2023/08/18 04:59:15;;;;;;;7.78;6.05;;;;;;;21.61;77.27;100501.31;4078923;29;20048;-63
2023/08/18 05:01:20;;;;;;;10.52;6.22;;;;;;;21.61;77.37;100498.66;4058979;29;20104;-63
2023/08/18 05:03:24;;;;;;;9.43;6.32;;;;;;;21.63;77.19;100505.69;4057560;29;20056;-63
2023/08/18 05:05:27;;;;;;;7.93;5.72;;;;;;;21.64;77.35;100507.41;4072183;29;20649;-63
2023/08/18 05:07:30;;;;;;;6.88;5.05;;;;;;;21.64;77.50;100505.66;4064319;29;20037;-63
2023/08/18 05:09:34;;;;;;;9.17;6.60;;;;;;;21.61;77.59;100509.25;4075095;29;20538;-63
2023/08/18 05:11:37;;;;;;;7.57;5.63;;;;;;;21.64;77.59;100492.41;4079934;29;20291;-63
2023/08/18 05:13:42;;;;;;;8.15;6.13;;;;;;;21.66;77.46;100495.00;4076127;29;20758;-63
2023/08/18 05:15:46;;;;;;;15.57;6.20;;;;;;;21.69;77.46;100508.16;4060809;29;20048;-63
2023/08/18 05:17:50;;;;;;;10.23;6.50;;;;;;;21.71;77.32;100503.66;4069557;29;20031;-63
2023/08/18 05:19:52;;;;;;;6.78;5.18;;;;;;;21.72;77.49;100500.97;4075909;29;20066;-63
2023/08/18 05:21:55;;;;;;;8.80;6.20;;;;;;;21.75;77.25;100500.84;4078048;29;20418;-63
2023/08/18 05:23:58;;;;;;;9.20;6.65;;;;;;;21.75;77.46;100500.00;4077708;29;20047;-63
2023/08/18 05:26:01;;;;;;;8.55;5.57;;;;;;;21.78;77.60;100502.56;4074814;29;20433;-63
2023/08/18 05:28:05;;;;;;;9.93;5.88;;;;;;;21.80;77.40;100508.69;4071557;29;20530;-63
2023/08/18 05:30:09;;;;;;;11.18;6.93;;;;;;;21.83;77.54;100507.69;4074661;29;20048;-63
2023/08/18 05:32:13;;;;;;;9.93;6.95;;;;;;;21.86;77.28;100511.13;4073734;29;20043;-63
2023/08/18 05:34:16;;;;;;;12.10;7.28;;;;;;;21.86;77.51;100503.19;4072548;29;20134;-63
2023/08/18 05:36:19;;;;;;;10.70;8.00;;;;;;;21.94;77.18;100513.50;4073694;29;20044;-63
2023/08/18 05:38:22;;;;;;;7.25;5.00;;;;;;;22.01;77.57;100511.56;4068735;29;20455;-64
2023/08/18 05:40:24;;;;;;;8.45;5.07;;;;;;;22.20;77.25;100512.66;4077254;29;20044;-63
2023/08/18 05:42:28;;;;;;;8.75;4.70;;;;;;;22.42;76.73;100511.97;4072970;29;20041;-64
2023/08/18 05:44:31;;;;;;;11.18;6.13;;;;;;;22.59;76.08;100514.03;4073929;29;20036;-63
2023/08/18 05:46:34;;;;;;;9.32;5.35;;;;;;;22.71;75.32;100512.75;4077652;29;20070;-64
2023/08/18 05:48:38;;;;;;;10.73;5.40;;;;;;;22.80;75.02;100513.28;4067417;29;20040;-64
2023/08/18 05:50:41;;;;;;;7.60;6.05;;;;;;;22.84;74.44;100506.94;4070682;29;20123;-64
2023/08/18 05:52:44;;;;;;;9.82;6.50;;;;;;;22.86;74.35;100512.19;4074839;29;20110;-64
2023/08/18 05:54:47;;;;;;;13.43;8.05;;;;;;;22.90;73.56;100511.16;4078560;29;20039;-64
2023/08/18 05:56:50;;;;;;;10.57;8.60;;;;;;;22.89;73.42;100509.41;4075217;29;20137;-64
2023/08/18 05:58:53;;;;;;;9.18;6.97;;;;;;;22.82;73.61;100505.25;4074887;29;20043;-64
2023/08/18 06:00:56;;;;;;;12.88;7.07;;;;;;;22.83;73.76;100505.19;4076669;29;20036;-64
2023/08/18 06:02:59;;;;;;;12.73;9.40;;;;;;;22.91;73.62;100510.25;4076615;29;20037;-64
2023/08/18 06:05:04;;;;;;;13.73;10.13;;;;;;;23.04;72.73;100509.78;4070757;29;20067;-63
2023/08/18 06:07:07;;;;;;;17.05;11.35;;;;;;;22.92;72.43;100511.97;4075657;29;20057;-64
2023/08/18 06:09:10;;;;;;;11.65;7.95;;;;;;;22.70;73.73;100511.00;4070139;29;20047;-64
2023/08/18 06:11:15;;;;;;;14.40;9.02;;;;;;;22.63;73.86;100515.66;4076643;29;20067;-64
2023/08/18 06:13:17;;;;;;;14.10;8.80;;;;;;;22.66;74.15;100515.53;4077720;29;20410;-63
2023/08/18 06:15:21;;;;;;;8.88;6.68;;;;;;;22.76;74.13;100514.28;4074676;29;20040;-63
2023/08/18 06:17:24;;;;;;;8.48;6.22;;;;;;;22.88;74.05;100528.03;4073924;29;20067;-63
2023/08/18 06:19:27;;;;;;;9.65;6.35;;;;;;;22.98;73.46;100521.47;4072909;29;20071;-64
2023/08/18 06:21:31;;;;;;;13.77;7.15;;;;;;;23.08;73.16;100537.94;4076105;29;20032;-64
2023/08/18 06:23:34;;;;;;;15.48;7.45;;;;;;;23.16;72.94;100535.91;4069657;29;20044;-63
2023/08/18 06:25:37;;;;;;;11.52;7.18;;;;;;;23.21;72.78;100528.63;4076422;29;20486;-64
2023/08/18 06:27:40;;;;;;;12.32;7.25;;;;;;;23.27;72.67;100528.38;4076625;29;20039;-63
2023/08/18 06:29:43;;;;;;;12.27;6.97;;;;;;;23.32;72.58;100523.78;4094423;23;20074;-71
2023/08/18 06:31:46;;;;;;;13.43;7.40;;;;;;;23.39;72.13;100531.50;4089775;29;20054;-71
2023/08/18 06:33:49;;;;;;;15.32;7.57;;;;;;;23.46;71.89;100543.63;4096098;28;20064;-71
2023/08/18 06:35:52;;;;;;;15.30;8.23;;;;;;;23.50;71.78;100545.25;4094183;28;20042;-71
2023/08/18 06:37:56;;;;;;;16.70;9.05;;;;;;;23.60;71.34;100554.56;4091019;28;20098;-71
2023/08/18 06:39:58;;;;;;;27.60;12.18;;;;;;;23.64;70.93;100553.53;4092502;29;20031;-71
2023/08/18 06:42:01;;;;;;;19.70;8.43;;;;;;;23.61;71.10;100548.34;4090428;29;20051;-70
2023/08/18 06:44:07;;;;;;;22.63;9.02;;;;;;;23.64;71.21;100542.91;4089306;29;20584;-71
2023/08/18 06:46:10;;;;;;;18.73;9.00;;;;;;;23.68;71.08;100548.97;4093500;28;20512;-71
2023/08/18 06:48:13;;;;;;;18.23;8.55;;;;;;;23.73;70.79;100547.00;4084871;28;20047;-71
2023/08/18 06:50:16;;;;;;;18.33;8.27;;;;;;;23.79;70.69;100552.06;4095754;28;20053;-71
2023/08/18 06:52:18;;;;;;;19.10;9.25;;;;;;;23.82;70.64;100554.59;4092431;29;20051;-70
2023/08/18 06:54:23;;;;;;;17.10;8.93;;;;;;;23.87;70.49;100554.44;4093775;28;20036;-70
2023/08/18 06:56:25;;;;;;;13.70;7.53;;;;;;;23.90;70.51;100553.47;4088646;29;20035;-71
2023/08/18 06:58:28;;;;;;;13.57;7.70;;;;;;;23.94;70.52;100558.59;4091418;28;20035;-70
2023/08/18 07:00:32;;;;;;;19.35;9.15;;;;;;;24.00;70.17;100555.69;4090026;29;20126;-70
2023/08/18 07:02:34;;;;;;;12.52;7.50;;;;;;;24.02;69.98;100561.81;4090881;29;20533;-71
2023/08/18 07:04:37;;;;;;;11.85;7.88;;;;;;;24.04;69.63;100554.63;4089033;28;20047;-71
2023/08/18 07:06:44;;;;;;;17.90;9.88;;;;;;;24.09;69.08;100558.91;4094108;28;20409;-70
2023/08/18 07:08:47;;;;;;;19.75;7.78;;;;;;;24.15;69.13;100558.63;4090793;29;20079;-70
2023/08/18 07:10:51;;;;;;;12.30;8.80;;;;;;;24.21;68.91;100553.94;4090029;29;20062;-71
2023/08/18 07:12:54;;;;;;;13.20;7.78;;;;;;;24.24;68.83;100558.28;4085115;29;20055;-70
2023/08/18 07:14:57;;;;;;;21.73;10.52;;;;;;;24.29;68.58;100555.44;4092056;29;20035;-71
2023/08/18 07:17:00;;;;;;;15.25;9.20;;;;;;;24.33;68.03;100557.88;4084722;29;20070;-70
2023/08/18 07:19:03;;;;;;;16.88;8.25;;;;;;;24.41;66.38;100554.91;4092493;29;20074;-70
2023/08/18 07:21:05;;;;;;;11.90;8.00;;;;;;;24.42;65.44;100555.78;4086200;29;20059;-70
2023/08/18 07:23:08;;;;;;;15.00;7.18;;;;;;;24.37;65.68;100562.16;4090778;29;20046;-70
2023/08/18 07:25:11;;;;;;;11.05;6.70;;;;;;;24.31;66.78;100562.41;4093931;28;20047;-70
2023/08/18 07:27:15;;;;;;;8.80;6.63;;;;;;;24.35;67.35;100568.44;4073585;29;20043;-68
2023/08/18 07:29:18;;;;;;;9.55;6.22;;;;;;;24.42;67.32;100558.44;4090210;29;20086;-68
2023/08/18 07:31:21;;;;;;;9.50;6.97;;;;;;;24.46;67.03;100563.56;4079471;29;20134;-68
2023/08/18 07:33:23;;;;;;;11.60;6.68;;;;;;;24.51;66.66;100572.19;4090693;29;20036;-68
2023/08/18 07:35:26;;;;;;;10.75;6.50;;;;;;;24.61;66.55;100567.38;4091210;29;20489;-69
2023/08/18 07:37:32;;;;;;;8.18;5.57;;;;;;;24.61;66.58;100571.84;4089642;29;20043;-69
2023/08/18 07:39:55;;;;;;;9.23;6.15;;;;;;;24.65;66.88;100562.78;4092008;28;20046;-69
2023/08/18 07:41:58;;;;;;;8.75;6.22;;;;;;;24.72;66.49;100565.13;4091887;29;20035;-68
2023/08/18 07:44:02;;;;;;;13.18;6.13;;;;;;;24.81;66.38;100573.63;4094662;29;20491;-68
2023/08/18 07:46:05;;;;;;;9.02;5.70;;;;;;;24.85;66.29;100581.44;4090382;29;20047;-68
2023/08/18 07:48:08;;;;;;;9.23;5.80;;;;;;;24.88;65.96;100570.66;4092797;29;20039;-68
2023/08/18 07:50:12;;;;;;;10.45;6.05;;;;;;;24.89;65.24;100577.69;4090743;29;20039;-69
2023/08/18 07:52:15;;;;;;;7.60;5.45;;;;;;;24.93;64.49;100575.78;4086130;29;20130;-69
2023/08/18 07:54:18;;;;;;;12.40;7.32;;;;;;;25.03;63.21;100573.56;4090385;29;20524;-69
2023/08/18 07:56:21;;;;;;;11.85;7.85;;;;;;;24.99;63.64;100570.19;4093823;28;20040;-69
2023/08/18 07:58:27;;;;;;;18.13;7.85;;;;;;;24.98;63.90;100575.56;4090607;28;20044;-69
2023/08/18 08:00:32;;;;;;;10.93;6.50;;;;;;;25.00;64.57;100573.69;4092942;28;20445;-69
2023/08/18 08:02:36;;;;;;;10.73;6.00;;;;;;;25.03;64.88;100576.25;4093892;29;20074;-69
2023/08/18 08:04:39;;;;;;;15.68;6.32;;;;;;;25.03;64.63;100579.75;4091358;28;20040;-69
2023/08/18 08:06:45;;;;;;;8.82;5.43;;;;;;;25.13;64.73;100582.88;4095007;28;20054;-69
2023/08/18 08:08:48;;;;;;;13.35;6.90;;;;;;;25.20;64.30;100584.34;4092969;28;20123;-69
2023/08/18 08:10:51;;;;;;;11.98;6.68;;;;;;;25.27;63.44;100579.59;4088207;29;20118;-69
2023/08/18 08:12:54;;;;;;;15.07;7.30;;;;;;;25.46;61.54;100578.78;4094803;28;20043;-69
2023/08/18 08:14:56;;;;;;;15.52;7.60;;;;;;;25.30;62.11;100582.09;4071021;29;20075;-69
2023/08/18 08:17:00;;;;;;;8.73;5.82;;;;;;;25.21;63.29;100583.38;4084316;29;20094;-69
2023/08/18 08:19:04;;;;;;;;;;;;;;;25.20;63.40;100575.47;4094204;29;20047;-69
2023/08/18 08:21:07;;;;;;;15.10;6.63;;;;;;;25.22;63.42;100578.94;4093680;29;20238;-69
2023/08/18 08:23:10;;;;;;;12.48;5.78;;;;;;;25.31;63.30;100581.22;4095315;29;20490;-69
2023/08/18 08:25:14;;;;;;;11.32;5.85;;;;;;;25.39;63.31;100576.41;4094744;28;20204;-69
2023/08/18 08:27:20;;;;;;;10.90;5.78;;;;;;;25.45;63.33;100585.88;4082977;29;20126;-69
2023/08/18 08:29:23;;;;;;;10.25;5.55;;;;;;;25.48;61.66;100577.78;4094685;29;20039;-69
2023/08/18 08:31:29;;;;;;;10.75;6.28;;;;;;;25.52;60.97;100571.34;4088729;29;20457;-69
2023/08/18 08:33:37;;;;;;;7.45;5.20;;;;;;;25.55;61.75;100581.88;4091925;28;20070;-69
2023/08/18 08:35:40;;;;;;;12.10;5.68;;;;;;;25.59;61.72;100570.13;4095716;29;20035;-69
2023/08/18 08:37:42;;;;;;;10.13;4.43;;;;;;;25.66;60.02;100577.88;4090948;29;20043;-69
2023/08/18 08:39:45;;;;;;;8.63;4.65;;;;;;;25.69;59.90;100572.38;4087097;28;20031;-68
2023/08/18 08:41:49;;;;;;;6.53;4.63;;;;;;;25.76;59.91;100571.16;4093627;29;20040;-67
2023/08/18 08:43:52;;;;;;;9.57;5.15;;;;;;;25.78;59.39;100566.63;4089436;29;20042;-68
2023/08/18 08:45:59;;;;;;;11.23;4.70;;;;;;;25.85;58.49;100569.88;4079827;29;20040;-69
2023/08/18 08:48:08;;;;;;;6.28;4.15;;;;;;;25.91;58.13;100572.22;4084575;29;20041;-68
2023/08/18 08:50:16;;;;;;;13.93;5.05;;;;;;;26.02;57.87;100567.28;4072717;29;20498;-67
2023/08/18 08:52:20;;;;;;;11.20;4.85;;;;;;;26.14;57.21;100576.47;4091846;29;20526;-70
2023/08/18 08:54:27;;;;;;;9.80;4.68;;;;;;;26.24;56.44;100564.41;4085633;29;20044;-71
2023/08/18 08:56:32;;;;;;;9.45;4.60;;;;;;;26.20;56.69;100567.31;4084930;29;20138;-66
2023/08/18 08:58:35;;;;;;;11.48;4.25;;;;;;;26.22;58.08;100571.59;4068538;29;20044;-64
2023/08/18 09:00:38;;;;;;;7.78;4.03;;;;;;;26.23;56.70;100561.84;4084406;29;20055;-62
2023/08/18 09:02:43;;;;;;;8.35;3.88;;;;;;;26.33;56.21;100572.88;4068444;29;20105;-70
2023/08/18 09:04:46;;;;;;;8.38;3.95;;;;;;;26.49;55.11;100560.53;4077626;29;20123;-65
2023/08/18 09:06:50;;;;;;;8.13;4.53;;;;;;;26.53;55.29;100569.22;4076650;29;20032;-63
2023/08/18 09:08:54;;;;;;;8.90;4.40;;;;;;;26.57;54.23;100568.13;4072894;29;20076;-64
2023/08/18 09:10:58;;;;;;;6.18;3.40;;;;;;;26.70;54.32;100566.59;4085235;29;20078;-67
2023/08/18 09:13:01;;;;;;;8.38;3.95;;;;;;;26.70;55.16;100571.91;4083952;29;20082;-67
2023/08/18 09:15:07;;;;;;;13.18;4.57;;;;;;;26.76;54.35;100571.59;4085263;29;20080;-67
2023/08/18 09:17:15;;;;;;;7.68;3.90;;;;;;;26.82;54.35;100571.28;4081907;29;20417;-67
2023/08/18 09:19:18;;;;;;;;;;;;;;;26.88;53.67;100563.91;4095060;29;20058;-67
2023/08/18 09:21:23;;;;;;;5.50;2.92;;;;;;;26.89;52.87;100566.47;4085254;29;20403;-68
2023/08/18 09:23:28;;;;;;;8.50;3.70;;;;;;;26.99;52.65;100573.06;4081102;29;20497;-67
2023/08/18 09:25:31;;;;;;;8.65;3.63;;;;;;;27.12;51.70;100567.94;4100999;28;20505;-69
2023/08/18 09:27:34;;;;;;;5.73;3.07;;;;;;;27.23;51.28;100570.03;4100452;29;20053;-69
2023/08/18 09:29:37;;;;;;;6.25;3.15;;;;;;;27.39;49.34;100558.56;4100636;28;20054;-68
2023/08/18 09:31:40;;;;;;;5.20;2.80;;;;;;;27.34;50.53;100562.34;4099457;29;20462;-69